sensor_id;sensor_type;location;lat;lon;timestamp;temperature;humidity
15394;DHT22;7795;47.986;11.868;2024-01-07T00:02:19;5.50;80.20
15394;DHT22;7795;47.986;11.868;2024-01-07T00:04:45;5.50;80.20
15394;DHT22;7795;47.986;11.868;2024-01-07T00:07:11;5.50;80.30
15394;DHT22;7795;47.986;11.868;2024-01-07T00:09:36;5.50;80.30
15394;DHT22;7795;47.986;11.868;2024-01-07T00:12:02;5.50;80.30
15394;DHT22;7795;47.986;11.868;2024-01-07T00:14:29;5.50;80.30
15394;DHT22;7795;47.986;11.868;2024-01-07T00:16:55;5.60;80.40
15394;DHT22;7795;47.986;11.868;2024-01-07T00:19:21;5.60;80.40
15394;DHT22;7795;47.986;11.868;2024-01-07T00:21:47;5.60;80.40
15394;DHT22;7795;47.986;11.868;2024-01-07T00:24:13;5.60;80.30
15394;DHT22;7795;47.986;11.868;2024-01-07T00:26:38;5.60;80.40
15394;DHT22;7795;47.986;11.868;2024-01-07T00:29:04;5.60;80.30
15394;DHT22;7795;47.986;11.868;2024-01-07T00:31:31;5.60;80.20
15394;DHT22;7795;47.986;11.868;2024-01-07T00:33:57;5.60;80.30
15394;DHT22;7795;47.986;11.868;2024-01-07T00:36:23;5.60;80.30
15394;DHT22;7795;47.986;11.868;2024-01-07T00:38:49;5.60;80.30
15394;DHT22;7795;47.986;11.868;2024-01-07T00:41:14;5.60;80.30
15394;DHT22;7795;47.986;11.868;2024-01-07T00:43:40;5.60;80.30
15394;DHT22;7795;47.986;11.868;2024-01-07T00:46:06;5.60;80.30
15394;DHT22;7795;47.986;11.868;2024-01-07T00:48:33;5.60;80.40
15394;DHT22;7795;47.986;11.868;2024-01-07T00:50:59;5.60;80.40
15394;DHT22;7795;47.986;11.868;2024-01-07T00:53:25;5.60;80.30
15394;DHT22;7795;47.986;11.868;2024-01-07T00:55:50;5.60;80.30
15394;DHT22;7795;47.986;11.868;2024-01-07T00:58:16;5.60;80.30
15394;DHT22;7795;47.986;11.868;2024-01-07T01:00:42;5.70;80.40
15394;DHT22;7795;47.986;11.868;2024-01-07T01:03:08;5.70;80.40
15394;DHT22;7795;47.986;11.868;2024-01-07T01:05:35;5.70;80.30
15394;DHT22;7795;47.986;11.868;2024-01-07T01:08:01;5.70;80.20
15394;DHT22;7795;47.986;11.868;2024-01-07T01:10:27;5.70;80.20
15394;DHT22;7795;47.986;11.868;2024-01-07T01:12:53;5.70;80.20
15394;DHT22;7795;47.986;11.868;2024-01-07T01:15:19;5.70;80.30
15394;DHT22;7795;47.986;11.868;2024-01-07T01:17:45;5.70;80.30
15394;DHT22;7795;47.986;11.868;2024-01-07T01:20:11;5.70;80.20
15394;DHT22;7795;47.986;11.868;2024-01-07T01:22:38;5.70;80.20
15394;DHT22;7795;47.986;11.868;2024-01-07T01:25:05;5.70;80.20
15394;DHT22;7795;47.986;11.868;2024-01-07T01:27:31;5.70;80.20
15394;DHT22;7795;47.986;11.868;2024-01-07T01:29:56;5.70;80.30
15394;DHT22;7795;47.986;11.868;2024-01-07T01:32:22;5.70;80.20
15394;DHT22;7795;47.986;11.868;2024-01-07T01:34:51;5.70;80.20
15394;DHT22;7795;47.986;11.868;2024-01-07T01:37:16;5.70;80.20
15394;DHT22;7795;47.986;11.868;2024-01-07T01:39:43;5.70;80.20
15394;DHT22;7795;47.986;11.868;2024-01-07T01:42:09;5.70;80.20
15394;DHT22;7795;47.986;11.868;2024-01-07T01:44:35;5.60;80.10
15394;DHT22;7795;47.986;11.868;2024-01-07T01:47:01;5.70;80.10
15394;DHT22;7795;47.986;11.868;2024-01-07T01:49:27;5.60;80.10
15394;DHT22;7795;47.986;11.868;2024-01-07T01:51:53;5.60;80.10
15394;DHT22;7795;47.986;11.868;2024-01-07T01:54:20;5.60;80.10
15394;DHT22;7795;47.986;11.868;2024-01-07T01:56:47;5.60;80.20
15394;DHT22;7795;47.986;11.868;2024-01-07T01:59:14;5.60;80.20
15394;DHT22;7795;47.986;11.868;2024-01-07T02:01:40;5.60;80.20
15394;DHT22;7795;47.986;11.868;2024-01-07T02:04:06;5.60;80.20
15394;DHT22;7795;47.986;11.868;2024-01-07T02:06:32;5.60;80.30
15394;DHT22;7795;47.986;11.868;2024-01-07T02:08:58;5.50;80.30
15394;DHT22;7795;47.986;11.868;2024-01-07T02:11:24;5.60;80.40
15394;DHT22;7795;47.986;11.868;2024-01-07T02:13:51;5.60;80.40
15394;DHT22;7795;47.986;11.868;2024-01-07T02:16:17;5.60;80.40
15394;DHT22;7795;47.986;11.868;2024-01-07T02:18:44;5.60;80.40
15394;DHT22;7795;47.986;11.868;2024-01-07T02:21:10;5.60;80.50
15394;DHT22;7795;47.986;11.868;2024-01-07T02:23:36;5.60;80.40
15394;DHT22;7795;47.986;11.868;2024-01-07T02:26:04;5.60;80.40
15394;DHT22;7795;47.986;11.868;2024-01-07T02:28:31;5.60;80.50
15394;DHT22;7795;47.986;11.868;2024-01-07T02:30:56;5.60;80.50
15394;DHT22;7795;47.986;11.868;2024-01-07T02:33:22;5.60;80.50
15394;DHT22;7795;47.986;11.868;2024-01-07T02:35:48;5.60;80.50
15394;DHT22;7795;47.986;11.868;2024-01-07T02:38:14;5.60;80.50
15394;DHT22;7795;47.986;11.868;2024-01-07T02:40:40;5.60;80.50
15394;DHT22;7795;47.986;11.868;2024-01-07T02:43:07;5.60;80.50
15394;DHT22;7795;47.986;11.868;2024-01-07T02:45:33;5.60;80.40
15394;DHT22;7795;47.986;11.868;2024-01-07T02:47:59;5.60;80.30
15394;DHT22;7795;47.986;11.868;2024-01-07T02:50:25;5.60;81.10
15394;DHT22;7795;47.986;11.868;2024-01-07T02:52:50;5.60;80.40
15394;DHT22;7795;47.986;11.868;2024-01-07T02:55:16;5.60;80.40
15394;DHT22;7795;47.986;11.868;2024-01-07T02:57:42;5.60;80.40
15394;DHT22;7795;47.986;11.868;2024-01-07T03:00:10;5.60;80.50
15394;DHT22;7795;47.986;11.868;2024-01-07T03:02:36;5.50;80.50
15394;DHT22;7795;47.986;11.868;2024-01-07T03:05:02;5.50;80.50
15394;DHT22;7795;47.986;11.868;2024-01-07T03:07:28;5.50;80.50
15394;DHT22;7795;47.986;11.868;2024-01-07T03:09:53;5.60;80.50
15394;DHT22;7795;47.986;11.868;2024-01-07T03:12:19;5.60;80.50
15394;DHT22;7795;47.986;11.868;2024-01-07T03:14:45;5.60;80.60
15394;DHT22;7795;47.986;11.868;2024-01-07T03:17:12;5.60;80.60
15394;DHT22;7795;47.986;11.868;2024-01-07T03:19:40;5.60;80.60
15394;DHT22;7795;47.986;11.868;2024-01-07T03:22:06;5.60;80.50
15394;DHT22;7795;47.986;11.868;2024-01-07T03:24:32;5.50;80.50
15394;DHT22;7795;47.986;11.868;2024-01-07T03:26:58;5.60;80.50
15394;DHT22;7795;47.986;11.868;2024-01-07T03:29:24;5.60;80.50
15394;DHT22;7795;47.986;11.868;2024-01-07T03:31:49;5.60;80.50
15394;DHT22;7795;47.986;11.868;2024-01-07T03:34:19;5.60;80.60
15394;DHT22;7795;47.986;11.868;2024-01-07T03:36:45;5.50;80.60
15394;DHT22;7795;47.986;11.868;2024-01-07T03:39:11;5.60;80.70
15394;DHT22;7795;47.986;11.868;2024-01-07T03:41:36;5.60;80.70
15394;DHT22;7795;47.986;11.868;2024-01-07T03:44:02;5.60;80.70
15394;DHT22;7795;47.986;11.868;2024-01-07T03:46:28;5.60;80.60
15394;DHT22;7795;47.986;11.868;2024-01-07T03:48:54;5.60;80.60
15394;DHT22;7795;47.986;11.868;2024-01-07T03:51:21;5.60;80.60
15394;DHT22;7795;47.986;11.868;2024-01-07T03:53:47;5.60;80.50
15394;DHT22;7795;47.986;11.868;2024-01-07T03:56:12;5.60;80.60
15394;DHT22;7795;47.986;11.868;2024-01-07T03:58:38;5.60;80.50
15394;DHT22;7795;47.986;11.868;2024-01-07T04:01:04;5.60;80.50
15394;DHT22;7795;47.986;11.868;2024-01-07T04:03:30;5.70;80.60
15394;DHT22;7795;47.986;11.868;2024-01-07T04:05:56;5.60;80.50
15394;DHT22;7795;47.986;11.868;2024-01-07T04:08:23;5.70;80.50
15394;DHT22;7795;47.986;11.868;2024-01-07T04:10:48;5.70;80.70
15394;DHT22;7795;47.986;11.868;2024-01-07T04:13:14;5.70;80.50
15394;DHT22;7795;47.986;11.868;2024-01-07T04:15:40;5.70;80.50
15394;DHT22;7795;47.986;11.868;2024-01-07T04:18:06;5.70;80.50
15394;DHT22;7795;47.986;11.868;2024-01-07T04:20:32;5.70;80.50
15394;DHT22;7795;47.986;11.868;2024-01-07T04:22:58;5.70;80.50
15394;DHT22;7795;47.986;11.868;2024-01-07T04:25:25;5.60;80.50
15394;DHT22;7795;47.986;11.868;2024-01-07T04:27:51;5.70;80.60
15394;DHT22;7795;47.986;11.868;2024-01-07T04:30:16;5.70;80.60
15394;DHT22;7795;47.986;11.868;2024-01-07T04:32:42;5.60;80.50
15394;DHT22;7795;47.986;11.868;2024-01-07T04:35:08;5.70;80.50
15394;DHT22;7795;47.986;11.868;2024-01-07T04:37:35;5.70;80.50
15394;DHT22;7795;47.986;11.868;2024-01-07T04:40:01;5.70;80.50
15394;DHT22;7795;47.986;11.868;2024-01-07T04:42:28;5.70;80.50
15394;DHT22;7795;47.986;11.868;2024-01-07T04:44:54;5.60;80.50
15394;DHT22;7795;47.986;11.868;2024-01-07T04:47:25;5.70;80.50
15394;DHT22;7795;47.986;11.868;2024-01-07T04:49:50;5.60;80.50
15394;DHT22;7795;47.986;11.868;2024-01-07T04:52:16;5.70;80.40
15394;DHT22;7795;47.986;11.868;2024-01-07T04:54:42;5.70;80.50
15394;DHT22;7795;47.986;11.868;2024-01-07T04:57:08;5.70;80.50
15394;DHT22;7795;47.986;11.868;2024-01-07T04:59:35;5.70;80.50
15394;DHT22;7795;47.986;11.868;2024-01-07T05:02:01;5.70;80.50
15394;DHT22;7795;47.986;11.868;2024-01-07T05:04:27;5.70;80.50
15394;DHT22;7795;47.986;11.868;2024-01-07T05:06:52;5.70;80.50
15394;DHT22;7795;47.986;11.868;2024-01-07T05:09:18;5.70;80.40
15394;DHT22;7795;47.986;11.868;2024-01-07T05:11:44;5.70;80.40
15394;DHT22;7795;47.986;11.868;2024-01-07T05:14:11;5.70;80.40
15394;DHT22;7795;47.986;11.868;2024-01-07T05:16:38;5.70;80.40
15394;DHT22;7795;47.986;11.868;2024-01-07T05:19:04;5.70;80.40
15394;DHT22;7795;47.986;11.868;2024-01-07T05:21:30;5.60;80.40
15394;DHT22;7795;47.986;11.868;2024-01-07T05:23:55;5.60;80.50
15394;DHT22;7795;47.986;11.868;2024-01-07T05:26:21;5.60;80.40
15394;DHT22;7795;47.986;11.868;2024-01-07T05:28:47;5.60;80.40
15394;DHT22;7795;47.986;11.868;2024-01-07T05:31:16;5.60;80.40
15394;DHT22;7795;47.986;11.868;2024-01-07T05:33:43;5.60;80.50
15394;DHT22;7795;47.986;11.868;2024-01-07T05:36:09;5.60;80.50
15394;DHT22;7795;47.986;11.868;2024-01-07T05:38:35;5.60;80.70
15394;DHT22;7795;47.986;11.868;2024-01-07T05:41:01;5.60;80.50
15394;DHT22;7795;47.986;11.868;2024-01-07T05:43:27;5.70;80.60
15394;DHT22;7795;47.986;11.868;2024-01-07T05:45:52;5.70;80.60
15394;DHT22;7795;47.986;11.868;2024-01-07T05:48:21;5.70;80.60
15394;DHT22;7795;47.986;11.868;2024-01-07T05:50:48;5.70;80.50
15394;DHT22;7795;47.986;11.868;2024-01-07T05:53:14;5.60;80.50
15394;DHT22;7795;47.986;11.868;2024-01-07T05:55:40;5.70;80.50
15394;DHT22;7795;47.986;11.868;2024-01-07T05:58:06;5.70;80.50
15394;DHT22;7795;47.986;11.868;2024-01-07T06:00:31;5.70;80.50
15394;DHT22;7795;47.986;11.868;2024-01-07T06:02:57;5.70;80.50
15394;DHT22;7795;47.986;11.868;2024-01-07T06:05:23;5.70;80.50
15394;DHT22;7795;47.986;11.868;2024-01-07T06:07:50;5.70;80.40
15394;DHT22;7795;47.986;11.868;2024-01-07T06:10:16;5.70;80.50
15394;DHT22;7795;47.986;11.868;2024-01-07T06:12:42;5.70;80.50
15394;DHT22;7795;47.986;11.868;2024-01-07T06:15:08;5.70;80.40
15394;DHT22;7795;47.986;11.868;2024-01-07T06:17:34;5.70;80.50
15394;DHT22;7795;47.986;11.868;2024-01-07T06:20:00;5.70;80.50
15394;DHT22;7795;47.986;11.868;2024-01-07T06:22:26;5.70;80.40
15394;DHT22;7795;47.986;11.868;2024-01-07T06:24:53;5.70;80.50
15394;DHT22;7795;47.986;11.868;2024-01-07T06:27:19;5.70;80.50
15394;DHT22;7795;47.986;11.868;2024-01-07T06:29:44;5.70;80.50
15394;DHT22;7795;47.986;11.868;2024-01-07T06:32:10;5.70;80.40
15394;DHT22;7795;47.986;11.868;2024-01-07T06:34:36;5.70;80.40
15394;DHT22;7795;47.986;11.868;2024-01-07T06:37:02;5.70;80.40
15394;DHT22;7795;47.986;11.868;2024-01-07T06:39:27;5.70;80.40
15394;DHT22;7795;47.986;11.868;2024-01-07T06:41:54;5.70;80.40
15394;DHT22;7795;47.986;11.868;2024-01-07T06:44:20;5.70;80.40
15394;DHT22;7795;47.986;11.868;2024-01-07T06:46:46;5.70;80.50
15394;DHT22;7795;47.986;11.868;2024-01-07T06:49:12;5.70;80.50
15394;DHT22;7795;47.986;11.868;2024-01-07T06:51:38;5.70;80.50
15394;DHT22;7795;47.986;11.868;2024-01-07T06:54:04;5.70;80.50
15394;DHT22;7795;47.986;11.868;2024-01-07T06:56:30;5.70;80.50
15394;DHT22;7795;47.986;11.868;2024-01-07T06:58:57;5.70;80.50
15394;DHT22;7795;47.986;11.868;2024-01-07T07:01:23;5.70;80.50
15394;DHT22;7795;47.986;11.868;2024-01-07T07:03:49;5.70;80.50
15394;DHT22;7795;47.986;11.868;2024-01-07T07:06:15;5.70;80.50
15394;DHT22;7795;47.986;11.868;2024-01-07T07:08:41;5.70;80.50
15394;DHT22;7795;47.986;11.868;2024-01-07T07:11:06;5.70;80.50
15394;DHT22;7795;47.986;11.868;2024-01-07T07:13:32;5.70;80.50
15394;DHT22;7795;47.986;11.868;2024-01-07T07:16:00;5.70;80.50
15394;DHT22;7795;47.986;11.868;2024-01-07T07:18:26;5.60;80.40
15394;DHT22;7795;47.986;11.868;2024-01-07T07:20:52;5.70;80.50
15394;DHT22;7795;47.986;11.868;2024-01-07T07:23:17;5.60;81.20
15394;DHT22;7795;47.986;11.868;2024-01-07T07:25:43;5.60;80.50
15394;DHT22;7795;47.986;11.868;2024-01-07T07:28:09;5.60;80.50
15394;DHT22;7795;47.986;11.868;2024-01-07T07:30:35;5.60;80.50
15394;DHT22;7795;47.986;11.868;2024-01-07T07:33:03;5.60;80.50
15394;DHT22;7795;47.986;11.868;2024-01-07T07:35:29;5.60;80.50
15394;DHT22;7795;47.986;11.868;2024-01-07T07:37:54;5.60;80.50
15394;DHT22;7795;47.986;11.868;2024-01-07T07:40:20;5.70;80.50
15394;DHT22;7795;47.986;11.868;2024-01-07T07:42:46;5.70;80.50
15394;DHT22;7795;47.986;11.868;2024-01-07T07:45:12;5.70;80.50
15394;DHT22;7795;47.986;11.868;2024-01-07T07:47:38;5.70;80.50
15394;DHT22;7795;47.986;11.868;2024-01-07T07:50:08;5.70;80.50
15394;DHT22;7795;47.986;11.868;2024-01-07T07:52:35;5.70;80.50
15394;DHT22;7795;47.986;11.868;2024-01-07T07:55:01;5.70;80.50
15394;DHT22;7795;47.986;11.868;2024-01-07T07:57:27;5.70;80.50
15394;DHT22;7795;47.986;11.868;2024-01-07T07:59:54;5.60;80.50
15394;DHT22;7795;47.986;11.868;2024-01-07T08:02:20;5.70;80.60
15394;DHT22;7795;47.986;11.868;2024-01-07T08:04:46;5.60;80.50
15394;DHT22;7795;47.986;11.868;2024-01-07T08:07:14;5.60;80.50
15394;DHT22;7795;47.986;11.868;2024-01-07T08:09:39;5.70;80.50
15394;DHT22;7795;47.986;11.868;2024-01-07T08:12:06;5.60;80.40
15394;DHT22;7795;47.986;11.868;2024-01-07T08:14:32;5.60;80.40
15394;DHT22;7795;47.986;11.868;2024-01-07T08:16:58;5.60;80.50
15394;DHT22;7795;47.986;11.868;2024-01-07T08:19:24;5.60;80.50
15394;DHT22;7795;47.986;11.868;2024-01-07T08:21:50;5.60;80.60
15394;DHT22;7795;47.986;11.868;2024-01-07T08:24:17;5.60;80.60
15394;DHT22;7795;47.986;11.868;2024-01-07T08:26:43;5.60;80.70
15394;DHT22;7795;47.986;11.868;2024-01-07T08:29:08;5.60;80.70
15394;DHT22;7795;47.986;11.868;2024-01-07T08:31:34;5.70;80.70
15394;DHT22;7795;47.986;11.868;2024-01-07T08:34:01;5.70;80.70
15394;DHT22;7795;47.986;11.868;2024-01-07T08:36:27;5.70;80.70
15394;DHT22;7795;47.986;11.868;2024-01-07T08:38:53;5.70;80.60
15394;DHT22;7795;47.986;11.868;2024-01-07T08:41:20;5.70;80.50
15394;DHT22;7795;47.986;11.868;2024-01-07T08:43:46;5.70;80.50
15394;DHT22;7795;47.986;11.868;2024-01-07T08:46:12;5.70;80.50
15394;DHT22;7795;47.986;11.868;2024-01-07T08:48:39;5.70;80.50
15394;DHT22;7795;47.986;11.868;2024-01-07T08:51:05;5.60;80.50
15394;DHT22;7795;47.986;11.868;2024-01-07T08:53:31;5.60;80.50
15394;DHT22;7795;47.986;11.868;2024-01-07T08:55:57;5.70;80.70
15394;DHT22;7795;47.986;11.868;2024-01-07T08:58:24;5.70;80.60
15394;DHT22;7795;47.986;11.868;2024-01-07T09:00:49;5.70;80.60
15394;DHT22;7795;47.986;11.868;2024-01-07T09:03:15;5.70;80.50
15394;DHT22;7795;47.986;11.868;2024-01-07T09:05:41;5.70;80.50
15394;DHT22;7795;47.986;11.868;2024-01-07T09:08:07;5.70;80.50
15394;DHT22;7795;47.986;11.868;2024-01-07T09:10:32;5.70;80.60
15394;DHT22;7795;47.986;11.868;2024-01-07T09:12:59;5.70;80.70
15394;DHT22;7795;47.986;11.868;2024-01-07T09:15:26;5.70;80.70
15394;DHT22;7795;47.986;11.868;2024-01-07T09:17:52;5.80;80.80
15394;DHT22;7795;47.986;11.868;2024-01-07T09:20:17;5.80;81.50
15394;DHT22;7795;47.986;11.868;2024-01-07T09:22:43;5.80;80.70
15394;DHT22;7795;47.986;11.868;2024-01-07T09:25:09;5.80;80.50
15394;DHT22;7795;47.986;11.868;2024-01-07T09:27:35;5.80;80.50
15394;DHT22;7795;47.986;11.868;2024-01-07T09:30:01;5.80;80.50
15394;DHT22;7795;47.986;11.868;2024-01-07T09:32:28;5.80;80.50
15394;DHT22;7795;47.986;11.868;2024-01-07T09:34:54;5.80;80.40
15394;DHT22;7795;47.986;11.868;2024-01-07T09:37:20;5.80;80.40
15394;DHT22;7795;47.986;11.868;2024-01-07T09:39:46;5.80;80.50
15394;DHT22;7795;47.986;11.868;2024-01-07T09:42:13;5.90;80.50
15394;DHT22;7795;47.986;11.868;2024-01-07T09:44:39;5.90;80.50
15394;DHT22;7795;47.986;11.868;2024-01-07T09:47:07;5.90;80.50
15394;DHT22;7795;47.986;11.868;2024-01-07T09:49:37;5.90;80.50
15394;DHT22;7795;47.986;11.868;2024-01-07T09:52:04;5.90;80.50
15394;DHT22;7795;47.986;11.868;2024-01-07T09:54:30;5.90;80.50
15394;DHT22;7795;47.986;11.868;2024-01-07T09:57:00;5.90;80.60
15394;DHT22;7795;47.986;11.868;2024-01-07T09:59:28;6.00;80.70
15394;DHT22;7795;47.986;11.868;2024-01-07T10:01:53;6.00;80.50
15394;DHT22;7795;47.986;11.868;2024-01-07T10:04:19;6.00;80.40
15394;DHT22;7795;47.986;11.868;2024-01-07T10:06:46;6.00;80.40
15394;DHT22;7795;47.986;11.868;2024-01-07T10:09:16;6.00;80.30
15394;DHT22;7795;47.986;11.868;2024-01-07T10:11:43;6.10;80.50
15394;DHT22;7795;47.986;11.868;2024-01-07T10:14:09;6.00;80.50
15394;DHT22;7795;47.986;11.868;2024-01-07T10:16:35;6.10;80.60
15394;DHT22;7795;47.986;11.868;2024-01-07T10:19:00;6.10;80.50
15394;DHT22;7795;47.986;11.868;2024-01-07T10:21:26;6.10;80.40
15394;DHT22;7795;47.986;11.868;2024-01-07T10:24:07;6.20;80.30
15394;DHT22;7795;47.986;11.868;2024-01-07T10:26:33;6.20;80.50
15394;DHT22;7795;47.986;11.868;2024-01-07T10:28:59;6.20;80.50
15394;DHT22;7795;47.986;11.868;2024-01-07T10:31:25;6.20;80.50
15394;DHT22;7795;47.986;11.868;2024-01-07T10:33:52;6.30;80.50
15394;DHT22;7795;47.986;11.868;2024-01-07T10:36:18;6.30;80.40
15394;DHT22;7795;47.986;11.868;2024-01-07T10:38:46;6.30;80.40
15394;DHT22;7795;47.986;11.868;2024-01-07T10:41:13;6.30;80.30
15394;DHT22;7795;47.986;11.868;2024-01-07T10:43:42;6.30;80.10
15394;DHT22;7795;47.986;11.868;2024-01-07T10:46:13;6.40;79.90
15394;DHT22;7795;47.986;11.868;2024-01-07T10:48:46;6.40;79.70
15394;DHT22;7795;47.986;11.868;2024-01-07T10:51:16;6.40;79.70
15394;DHT22;7795;47.986;11.868;2024-01-07T10:53:47;6.40;79.60
15394;DHT22;7795;47.986;11.868;2024-01-07T10:56:22;6.40;79.60
15394;DHT22;7795;47.986;11.868;2024-01-07T10:58:48;6.40;79.70
15394;DHT22;7795;47.986;11.868;2024-01-07T11:01:14;6.40;79.60
15394;DHT22;7795;47.986;11.868;2024-01-07T11:03:46;6.50;79.40
15394;DHT22;7795;47.986;11.868;2024-01-07T11:06:20;6.50;79.30
15394;DHT22;7795;47.986;11.868;2024-01-07T11:08:54;6.40;79.20
15394;DHT22;7795;47.986;11.868;2024-01-07T11:11:26;6.40;79.20
15394;DHT22;7795;47.986;11.868;2024-01-07T11:13:53;6.50;79.20
15394;DHT22;7795;47.986;11.868;2024-01-07T11:16:41;6.40;79.10
15394;DHT22;7795;47.986;11.868;2024-01-07T11:19:07;6.40;79.20
15394;DHT22;7795;47.986;11.868;2024-01-07T11:21:33;6.40;79.20
15394;DHT22;7795;47.986;11.868;2024-01-07T11:23:58;6.40;79.30
15394;DHT22;7795;47.986;11.868;2024-01-07T11:26:28;6.40;79.30
15394;DHT22;7795;47.986;11.868;2024-01-07T11:28:55;6.40;79.30
15394;DHT22;7795;47.986;11.868;2024-01-07T11:31:45;6.40;79.30
15394;DHT22;7795;47.986;11.868;2024-01-07T11:34:38;6.40;79.30
15394;DHT22;7795;47.986;11.868;2024-01-07T11:37:09;6.50;79.30
15394;DHT22;7795;47.986;11.868;2024-01-07T11:39:35;6.40;79.30
15394;DHT22;7795;47.986;11.868;2024-01-07T11:42:03;6.40;79.20
15394;DHT22;7795;47.986;11.868;2024-01-07T11:44:29;6.50;79.30
15394;DHT22;7795;47.986;11.868;2024-01-07T11:46:55;6.50;79.20
15394;DHT22;7795;47.986;11.868;2024-01-07T11:49:21;6.50;79.20
15394;DHT22;7795;47.986;11.868;2024-01-07T11:51:47;6.40;79.10
15394;DHT22;7795;47.986;11.868;2024-01-07T11:54:13;6.40;78.90
15394;DHT22;7795;47.986;11.868;2024-01-07T11:56:39;6.40;78.40
15394;DHT22;7795;47.986;11.868;2024-01-07T11:59:06;6.30;78.10
15394;DHT22;7795;47.986;11.868;2024-01-07T12:01:32;6.20;78.00
15394;DHT22;7795;47.986;11.868;2024-01-07T12:03:58;6.10;78.00
15394;DHT22;7795;47.986;11.868;2024-01-07T12:06:24;6.00;78.20
15394;DHT22;7795;47.986;11.868;2024-01-07T12:08:50;5.90;78.40
15394;DHT22;7795;47.986;11.868;2024-01-07T12:11:16;5.80;78.60
15394;DHT22;7795;47.986;11.868;2024-01-07T12:13:42;5.70;78.70
15394;DHT22;7795;47.986;11.868;2024-01-07T12:16:10;5.60;78.90
15394;DHT22;7795;47.986;11.868;2024-01-07T12:18:36;5.60;79.10
15394;DHT22;7795;47.986;11.868;2024-01-07T12:21:02;5.50;79.20
15394;DHT22;7795;47.986;11.868;2024-01-07T12:23:28;5.50;79.50
15394;DHT22;7795;47.986;11.868;2024-01-07T12:25:54;5.50;79.80
15394;DHT22;7795;47.986;11.868;2024-01-07T12:28:21;5.40;80.00
15394;DHT22;7795;47.986;11.868;2024-01-07T12:30:47;5.50;80.20
15394;DHT22;7795;47.986;11.868;2024-01-07T12:33:17;5.50;80.40
15394;DHT22;7795;47.986;11.868;2024-01-07T12:35:45;5.50;80.40
15394;DHT22;7795;47.986;11.868;2024-01-07T12:38:10;5.60;80.40
15394;DHT22;7795;47.986;11.868;2024-01-07T12:40:36;5.60;80.30
15394;DHT22;7795;47.986;11.868;2024-01-07T12:43:02;5.70;80.30
15394;DHT22;7795;47.986;11.868;2024-01-07T12:45:28;5.70;80.20
15394;DHT22;7795;47.986;11.868;2024-01-07T12:47:54;5.70;80.10
15394;DHT22;7795;47.986;11.868;2024-01-07T12:50:25;5.80;80.10
15394;DHT22;7795;47.986;11.868;2024-01-07T12:52:53;5.80;80.10
15394;DHT22;7795;47.986;11.868;2024-01-07T12:55:19;5.80;80.00
15394;DHT22;7795;47.986;11.868;2024-01-07T12:57:45;5.80;79.80
15394;DHT22;7795;47.986;11.868;2024-01-07T13:00:11;5.90;79.60
15394;DHT22;7795;47.986;11.868;2024-01-07T13:02:37;5.80;79.10
15394;DHT22;7795;47.986;11.868;2024-01-07T13:05:03;5.80;78.70
15394;DHT22;7795;47.986;11.868;2024-01-07T13:07:30;5.70;78.90
15394;DHT22;7795;47.986;11.868;2024-01-07T13:09:56;5.60;79.00
15394;DHT22;7795;47.986;11.868;2024-01-07T13:12:22;5.50;78.90
15394;DHT22;7795;47.986;11.868;2024-01-07T13:14:47;5.50;79.10
15394;DHT22;7795;47.986;11.868;2024-01-07T13:17:14;5.40;79.20
15394;DHT22;7795;47.986;11.868;2024-01-07T13:19:40;5.40;79.20
15394;DHT22;7795;47.986;11.868;2024-01-07T13:22:07;5.30;79.20
15394;DHT22;7795;47.986;11.868;2024-01-07T13:24:34;5.30;79.40
15394;DHT22;7795;47.986;11.868;2024-01-07T13:27:00;5.20;79.50
15394;DHT22;7795;47.986;11.868;2024-01-07T13:29:26;5.20;79.50
15394;DHT22;7795;47.986;11.868;2024-01-07T13:31:51;5.10;79.50
15394;DHT22;7795;47.986;11.868;2024-01-07T13:34:17;5.10;79.70
15394;DHT22;7795;47.986;11.868;2024-01-07T13:36:43;5.00;79.80
15394;DHT22;7795;47.986;11.868;2024-01-07T13:39:09;5.00;80.00
15394;DHT22;7795;47.986;11.868;2024-01-07T13:41:37;5.00;80.20
15394;DHT22;7795;47.986;11.868;2024-01-07T13:44:03;5.00;80.30
15394;DHT22;7795;47.986;11.868;2024-01-07T13:46:29;4.90;80.20
15394;DHT22;7795;47.986;11.868;2024-01-07T13:48:55;5.00;80.30
15394;DHT22;7795;47.986;11.868;2024-01-07T13:51:20;4.90;80.00
15394;DHT22;7795;47.986;11.868;2024-01-07T13:53:46;4.80;79.90
15394;DHT22;7795;47.986;11.868;2024-01-07T13:56:12;4.80;80.00
15394;DHT22;7795;47.986;11.868;2024-01-07T13:58:40;4.70;80.10
15394;DHT22;7795;47.986;11.868;2024-01-07T14:01:06;4.60;80.10
15394;DHT22;7795;47.986;11.868;2024-01-07T14:03:32;4.50;80.10
15394;DHT22;7795;47.986;11.868;2024-01-07T14:06:00;4.50;80.30
15394;DHT22;7795;47.986;11.868;2024-01-07T14:08:26;4.40;80.40
15394;DHT22;7795;47.986;11.868;2024-01-07T14:10:52;4.30;80.50
15394;DHT22;7795;47.986;11.868;2024-01-07T14:13:18;4.30;80.80
15394;DHT22;7795;47.986;11.868;2024-01-07T14:15:46;4.30;81.00
15394;DHT22;7795;47.986;11.868;2024-01-07T14:18:12;4.20;81.00
15394;DHT22;7795;47.986;11.868;2024-01-07T14:20:41;4.20;81.10
15394;DHT22;7795;47.986;11.868;2024-01-07T14:23:07;4.20;81.20
15394;DHT22;7795;47.986;11.868;2024-01-07T14:25:33;4.20;81.20
15394;DHT22;7795;47.986;11.868;2024-01-07T14:27:59;4.10;81.30
15394;DHT22;7795;47.986;11.868;2024-01-07T14:30:25;4.10;81.30
15394;DHT22;7795;47.986;11.868;2024-01-07T14:32:52;4.10;81.40
15394;DHT22;7795;47.986;11.868;2024-01-07T14:35:17;4.10;81.50
15394;DHT22;7795;47.986;11.868;2024-01-07T14:37:43;4.10;81.50
15394;DHT22;7795;47.986;11.868;2024-01-07T14:40:10;4.00;81.50
15394;DHT22;7795;47.986;11.868;2024-01-07T14:42:36;4.10;81.60
15394;DHT22;7795;47.986;11.868;2024-01-07T14:45:01;4.00;81.50
15394;DHT22;7795;47.986;11.868;2024-01-07T14:47:29;4.00;81.50
15394;DHT22;7795;47.986;11.868;2024-01-07T14:49:56;4.00;81.50
15394;DHT22;7795;47.986;11.868;2024-01-07T14:52:22;4.00;81.50
15394;DHT22;7795;47.986;11.868;2024-01-07T14:54:48;4.00;81.60
15394;DHT22;7795;47.986;11.868;2024-01-07T14:57:14;3.90;81.60
15394;DHT22;7795;47.986;11.868;2024-01-07T14:59:42;3.90;81.70
15394;DHT22;7795;47.986;11.868;2024-01-07T15:02:08;3.90;81.80
15394;DHT22;7795;47.986;11.868;2024-01-07T15:04:34;3.90;81.80
15394;DHT22;7795;47.986;11.868;2024-01-07T15:07:01;3.90;81.90
15394;DHT22;7795;47.986;11.868;2024-01-07T15:09:27;3.90;81.90
15394;DHT22;7795;47.986;11.868;2024-01-07T15:11:54;3.90;81.90
15394;DHT22;7795;47.986;11.868;2024-01-07T15:14:19;4.00;81.90
15394;DHT22;7795;47.986;11.868;2024-01-07T15:16:45;4.00;81.80
15394;DHT22;7795;47.986;11.868;2024-01-07T15:19:17;3.90;81.60
15394;DHT22;7795;47.986;11.868;2024-01-07T15:21:43;3.90;81.50
15394;DHT22;7795;47.986;11.868;2024-01-07T15:24:11;3.90;81.60
15394;DHT22;7795;47.986;11.868;2024-01-07T15:26:37;3.90;81.70
15394;DHT22;7795;47.986;11.868;2024-01-07T15:29:04;3.80;81.70
15394;DHT22;7795;47.986;11.868;2024-01-07T15:31:29;3.90;81.90
15394;DHT22;7795;47.986;11.868;2024-01-07T15:33:55;3.90;82.00
15394;DHT22;7795;47.986;11.868;2024-01-07T15:36:21;3.90;82.10
15394;DHT22;7795;47.986;11.868;2024-01-07T15:38:47;4.00;82.10
15394;DHT22;7795;47.986;11.868;2024-01-07T15:41:14;4.00;82.20